createdAt,value
2019-02-08T00:08:34.252Z,0.90
2019-02-08T00:18:39.748Z,0.90
2019-02-08T00:28:45.345Z,1.00
2019-02-08T00:38:50.631Z,1.10
2019-02-08T00:48:55.928Z,1.30
2019-02-08T00:59:01.406Z,1.30
2019-02-08T01:09:08.853Z,1.40
2019-02-08T01:19:14.252Z,1.30
2019-02-08T01:29:19.846Z,1.20
2019-02-08T01:39:25.554Z,1.50
2019-02-08T01:49:30.948Z,1.60
2019-02-08T01:59:36.331Z,1.70
2019-02-08T02:09:41.842Z,1.90
2019-02-08T02:19:47.230Z,2.10
2019-02-08T02:29:52.823Z,2.10
2019-02-08T02:39:58.315Z,2.10
2019-02-08T02:50:03.817Z,2.30
2019-02-08T03:00:12.428Z,2.20
2019-02-08T03:10:20.044Z,2.20
2019-02-08T03:20:25.466Z,2.20
2019-02-08T03:30:37.268Z,2.10
2019-02-08T03:40:44.703Z,2.00
2019-02-08T03:50:50.091Z,2.00
2019-02-08T04:00:57.021Z,2.00
2019-02-08T04:11:02.412Z,2.00
2019-02-08T04:21:09.549Z,1.90
2019-02-08T04:31:15.052Z,1.90
2019-02-08T04:41:20.748Z,1.90
2019-02-08T04:51:26.046Z,1.80
2019-02-08T05:01:31.586Z,1.90
2019-02-08T05:11:37.036Z,1.90
2019-02-08T05:21:42.415Z,1.80
2019-02-08T05:31:47.917Z,1.80
2019-02-08T05:41:53.414Z,1.90
2019-02-08T05:51:58.825Z,1.70
2019-02-08T06:02:06.840Z,1.70
2019-02-08T06:12:14.724Z,1.70
2019-02-08T06:22:23.000Z,1.70
2019-02-08T06:32:30.814Z,1.80
2019-02-08T06:42:36.139Z,1.80
2019-02-08T06:52:41.501Z,1.90
2019-02-08T07:02:51.504Z,1.90
2019-02-08T07:13:01.298Z,1.90
2019-02-08T07:23:08.437Z,1.90
2019-02-08T07:43:58.844Z,2.10
2019-02-08T07:54:21.142Z,2.10
2019-02-08T08:04:40.870Z,2.20
2019-02-08T08:15:00.335Z,2.60
2019-02-08T08:25:08.752Z,2.50
2019-02-08T08:35:23.157Z,2.50
2019-02-08T08:46:12.276Z,2.80
2019-02-08T08:56:38.761Z,3.00
2019-02-08T09:06:49.903Z,3.30
2019-02-08T09:17:10.032Z,3.50
2019-02-08T09:27:36.207Z,3.50
2019-02-08T09:37:51.431Z,3.70
2019-02-08T09:48:32.762Z,3.80
2019-02-08T09:58:58.849Z,3.90
2019-02-08T10:09:23.898Z,4.10
2019-02-08T10:19:48.747Z,4.40
2019-02-08T10:30:34.494Z,4.60
2019-02-08T10:40:45.716Z,4.60
2019-02-08T10:51:17.734Z,4.70
2019-02-08T11:01:41.950Z,4.70
2019-02-08T11:12:13.882Z,4.80
2019-02-08T11:22:22.345Z,4.80
2019-02-08T11:32:42.505Z,5.20
2019-02-08T11:42:36.013Z,5.50
2019-02-08T11:52:41.875Z,5.80
2019-02-08T12:02:47.404Z,5.60
2019-02-08T12:12:54.138Z,5.70
2019-02-08T12:23:00.765Z,6.30
2019-02-08T12:33:10.154Z,6.50
2019-02-08T12:43:15.858Z,6.80
2019-02-08T12:53:23.306Z,7.00
2019-02-08T13:03:29.308Z,7.40
2019-02-08T13:13:35.201Z,7.40
2019-02-08T13:23:40.896Z,7.00
2019-02-08T13:33:46.392Z,6.90
2019-02-08T13:43:54.352Z,7.50
2019-02-08T13:54:00.052Z,7.00
2019-02-08T14:04:05.651Z,6.70
2019-02-08T19:26:09.881Z,1.80
2019-02-08T19:46:51.295Z,1.70
2019-02-08T19:56:58.033Z,1.60
2019-02-08T20:07:05.476Z,1.40
2019-02-08T20:17:10.646Z,1.30
2019-02-08T20:27:16.053Z,1.20
2019-02-08T20:37:21.131Z,1.30
2019-02-08T20:47:27.312Z,1.10
2019-02-08T20:57:32.631Z,1.00
2019-02-08T21:07:37.848Z,1.00
2019-02-08T21:17:42.947Z,1.30
2019-02-08T21:27:48.651Z,1.40
2019-02-08T21:37:53.662Z,1.40
2019-02-08T21:47:58.831Z,1.30
2019-02-08T21:58:03.948Z,1.30
2019-02-08T22:08:10.278Z,1.30
2019-02-08T22:18:15.243Z,1.20
2019-02-08T22:28:20.119Z,1.30
2019-02-08T22:38:24.909Z,1.10
2019-02-08T22:48:29.734Z,1.10
2019-02-08T22:58:34.632Z,1.30
2019-02-08T23:08:39.447Z,1.30
2019-02-08T23:18:44.294Z,1.10
2019-02-08T23:28:49.077Z,1.10
2019-02-08T23:38:53.889Z,0.90
2019-02-08T23:48:58.685Z,0.70
2019-02-08T23:59:03.477Z,0.50
